Time;durP1;ratioP1;P1;durP2;ratioP2;P2;SDS_P1;SDS_P2;PMS_P1;PMS_P2;Temp;Humidity;BMP_temperature;BMP_pressure;BME280_temperature;BME280_humidity;BME280_pressure;Samples;Min_cycle;Max_cycle;Signal;HPM_P1;HPM_P2
2023/09/29 00:00:15;;;;;;;245.60;89.33;;;;;;;;;;4994268;28;20465;-47
2023/09/29 00:02:42;;;;;;;247.83;90.17;;;;;;;;;;4994215;28;20427;-46
2023/09/29 00:05:09;;;;;;;249.53;93.40;;;;;;;;;;4994508;28;20430;-47
2023/09/29 00:07:35;;;;;;;246.37;91.40;;;;;;;;;;4991725;28;20439;-47
2023/09/29 00:10:02;;;;;;;247.17;91.47;;;;;;;;;;4987086;28;20435;-47
2023/09/29 00:12:28;;;;;;;249.17;93.90;;;;;;;;;;4993087;28;20442;-48
2023/09/29 00:14:55;;;;;;;247.27;91.80;;;;;;;;;;4994243;28;20418;-46
2023/09/29 00:17:21;;;;;;;246.90;90.70;;;;;;;;;;4993756;28;20450;-46
2023/09/29 00:19:47;;;;;;;252.07;97.13;;;;;;;;;;4991436;28;20559;-46
2023/09/29 00:22:12;;;;;;;249.60;93.17;;;;;;;;;;4990894;28;20449;-47
2023/09/29 00:24:39;;;;;;;250.17;92.00;;;;;;;;;;4994276;28;20765;-47
2023/09/29 00:27:05;;;;;;;245.73;90.87;;;;;;;;;;4994313;28;20406;-47
2023/09/29 00:29:31;;;;;;;248.63;93.97;;;;;;;;;;4993848;28;20404;-46
2023/09/29 00:31:57;;;;;;;246.47;91.97;;;;;;;;;;4993937;28;20809;-46
2023/09/29 00:34:23;;;;;;;245.57;88.30;;;;;;;;;;4993818;28;20913;-47
2023/09/29 00:36:51;;;;;;;247.70;91.37;;;;;;;;;;4993658;28;20408;-47
2023/09/29 00:39:18;;;;;;;248.87;93.83;;;;;;;;;;4992988;28;20468;-47
2023/09/29 00:41:44;;;;;;;251.07;94.10;;;;;;;;;;4993396;28;20398;-47
2023/09/29 00:44:10;;;;;;;250.07;94.93;;;;;;;;;;4991224;28;20472;-46
2023/09/29 00:46:37;;;;;;;252.83;96.87;;;;;;;;;;4989915;28;20402;-46
2023/09/29 00:49:04;;;;;;;248.50;93.17;;;;;;;;;;4988129;28;20825;-47
2023/09/29 00:51:31;;;;;;;249.80;93.57;;;;;;;;;;4986136;28;20812;-46
2023/09/29 00:53:57;;;;;;;246.90;91.23;;;;;;;;;;4993885;28;20746;-47
2023/09/29 00:56:23;;;;;;;249.73;93.67;;;;;;;;;;4993357;28;20432;-47
2023/09/29 00:58:49;;;;;;;247.37;92.97;;;;;;;;;;4993258;28;20467;-47
2023/09/29 01:01:15;;;;;;;249.07;92.93;;;;;;;;;;4993213;28;20406;-47
2023/09/29 01:03:41;;;;;;;250.50;95.87;;;;;;;;;;4992959;28;20432;-46
2023/09/29 01:06:08;;;;;;;250.43;92.77;;;;;;;;;;4992736;28;20407;-46
2023/09/29 01:08:34;;;;;;;247.87;91.07;;;;;;;;;;4985682;28;20488;-46
2023/09/29 01:11:00;;;;;;;245.93;88.83;;;;;;;;;;4993109;28;20413;-47
2023/09/29 01:13:26;;;;;;;250.83;95.57;;;;;;;;;;4992987;28;20437;-47
2023/09/29 01:15:53;;;;;;;250.47;97.80;;;;;;;;;;4993179;28;20407;-47
2023/09/29 01:18:19;;;;;;;247.80;91.27;;;;;;;;;;4992919;28;20824;-46
2023/09/29 01:20:45;;;;;;;256.33;97.90;;;;;;;;;;4993059;28;20457;-47
2023/09/29 01:23:11;;;;;;;248.37;92.53;;;;;;;;;;4992533;28;20433;-46
2023/09/29 01:25:38;;;;;;;248.43;93.10;;;;;;;;;;4990868;28;20410;-47
2023/09/29 01:28:08;;;;;;;249.23;92.40;;;;;;;;;;4992777;28;20409;-46
2023/09/29 01:30:34;;;;;;;246.60;90.97;;;;;;;;;;4983937;28;20827;-47
2023/09/29 01:33:00;;;;;;;249.80;94.07;;;;;;;;;;4993073;28;20437;-46
2023/09/29 01:35:27;;;;;;;246.83;91.37;;;;;;;;;;4992715;28;20480;-47
2023/09/29 01:37:54;;;;;;;244.43;90.47;;;;;;;;;;4992852;28;20414;-47
2023/09/29 01:40:21;;;;;;;251.87;100.13;;;;;;;;;;4990862;28;20499;-47
2023/09/29 01:42:47;;;;;;;247.70;93.37;;;;;;;;;;4992430;28;20477;-47
2023/09/29 01:45:14;;;;;;;247.60;92.23;;;;;;;;;;4992376;28;20425;-47
2023/09/29 01:47:41;;;;;;;247.10;92.27;;;;;;;;;;4992604;28;20414;-48
2023/09/29 01:50:07;;;;;;;249.23;94.90;;;;;;;;;;4989998;28;20425;-47
2023/09/29 01:52:33;;;;;;;245.07;89.70;;;;;;;;;;4992106;28;20558;-47
2023/09/29 01:54:59;;;;;;;248.67;94.80;;;;;;;;;;4992439;28;20510;-46
2023/09/29 01:57:25;;;;;;;249.03;93.03;;;;;;;;;;4992403;28;20508;-46
2023/09/29 01:59:52;;;;;;;250.47;95.63;;;;;;;;;;4984631;28;20519;-48
2023/09/29 02:02:18;;;;;;;254.87;101.60;;;;;;;;;;4992064;28;20426;-46
2023/09/29 02:04:44;;;;;;;250.83;97.17;;;;;;;;;;4992582;28;20430;-46
2023/09/29 02:07:09;;;;;;;251.77;96.93;;;;;;;;;;4992142;28;20411;-46
2023/09/29 02:09:36;;;;;;;247.57;92.17;;;;;;;;;;4992273;28;20419;-48
2023/09/29 02:12:02;;;;;;;248.47;93.73;;;;;;;;;;4992097;28;20441;-46
2023/09/29 02:14:29;;;;;;;247.67;93.30;;;;;;;;;;4992289;28;20416;-47
2023/09/29 02:16:55;;;;;;;248.43;93.47;;;;;;;;;;4992165;28;20466;-46
2023/09/29 02:19:21;;;;;;;248.83;94.93;;;;;;;;;;4992006;28;20467;-47
2023/09/29 02:21:47;;;;;;;249.80;96.00;;;;;;;;;;4992037;28;20434;-46
2023/09/29 02:24:13;;;;;;;246.23;91.23;;;;;;;;;;4992386;28;20444;-46
2023/09/29 02:26:41;;;;;;;249.27;94.00;;;;;;;;;;4992136;28;20450;-46
2023/09/29 02:29:08;;;;;;;246.03;92.03;;;;;;;;;;4992041;28;20412;-47
2023/09/29 02:31:34;;;;;;;244.57;90.87;;;;;;;;;;4991987;28;20463;-46
2023/09/29 02:34:00;;;;;;;245.57;91.57;;;;;;;;;;4992373;28;20414;-46
2023/09/29 02:36:25;;;;;;;251.27;98.87;;;;;;;;;;4992043;28;20427;-47
2023/09/29 02:38:51;;;;;;;251.03;96.73;;;;;;;;;;4991910;28;20572;-47
2023/09/29 02:41:18;;;;;;;248.10;95.37;;;;;;;;;;4993861;28;20797;-46
2023/09/29 02:43:44;;;;;;;244.60;92.10;;;;;;;;;;4995634;28;20447;-46
2023/09/29 02:46:14;;;;;;;247.20;95.40;;;;;;;;;;4993830;28;20494;-47
2023/09/29 02:48:41;;;;;;;247.00;91.87;;;;;;;;;;4992602;28;20437;-47
2023/09/29 02:51:13;;;;;;;248.90;95.63;;;;;;;;;;4991591;28;20908;-47
2023/09/29 02:53:39;;;;;;;247.23;92.40;;;;;;;;;;4986214;28;20966;-48
2023/09/29 02:56:05;;;;;;;247.13;96.03;;;;;;;;;;4988998;28;20440;-47
2023/09/29 02:58:34;;;;;;;249.00;95.73;;;;;;;;;;4994720;28;20846;-46
2023/09/29 03:01:01;;;;;;;248.57;94.27;;;;;;;;;;4995340;28;20402;-46
2023/09/29 03:03:27;;;;;;;250.17;97.47;;;;;;;;;;4995423;28;20422;-47
2023/09/29 03:05:53;;;;;;;246.70;93.97;;;;;;;;;;4995441;28;20502;-48
2023/09/29 03:08:19;;;;;;;250.97;97.60;;;;;;;;;;4995397;28;20418;-47
2023/09/29 03:10:45;;;;;;;249.80;97.23;;;;;;;;;;4995261;28;20687;-47
2023/09/29 03:13:11;;;;;;;245.70;92.80;;;;;;;;;;4995115;28;20494;-47
2023/09/29 03:15:37;;;;;;;249.60;98.43;;;;;;;;;;4995370;28;20410;-47
2023/09/29 03:18:05;;;;;;;247.70;93.90;;;;;;;;;;4995176;28;20423;-46
2023/09/29 03:20:32;;;;;;;250.77;95.90;;;;;;;;;;4995043;28;20596;-46
2023/09/29 03:23:04;;;;;;;245.60;89.67;;;;;;;;;;4990385;28;20423;-46
2023/09/29 03:25:30;;;;;;;249.30;94.80;;;;;;;;;;4994979;28;20410;-47
2023/09/29 03:27:56;;;;;;;251.30;97.57;;;;;;;;;;4995052;28;20421;-47
2023/09/29 03:30:22;;;;;;;246.90;92.30;;;;;;;;;;4994907;28;20476;-48
2023/09/29 03:32:48;;;;;;;244.83;90.70;;;;;;;;;;4994888;28;20466;-47
2023/09/29 03:35:14;;;;;;;246.63;91.43;;;;;;;;;;4995041;28;20413;-47
2023/09/29 03:37:40;;;;;;;250.80;96.40;;;;;;;;;;4994902;28;20767;-47
2023/09/29 03:40:10;;;;;;;248.53;95.17;;;;;;;;;;4994752;28;20457;-47
2023/09/29 03:42:36;;;;;;;243.53;88.83;;;;;;;;;;4975696;28;20434;-47
2023/09/29 03:45:05;;;;;;;246.83;94.87;;;;;;;;;;4990470;28;20429;-47
2023/09/29 03:47:32;;;;;;;246.60;91.97;;;;;;;;;;4983196;28;20461;-47
2023/09/29 03:49:59;;;;;;;246.97;94.17;;;;;;;;;;4992908;28;20465;-46
2023/09/29 03:52:25;;;;;;;247.47;93.77;;;;;;;;;;4989920;28;20440;-46
2023/09/29 03:54:51;;;;;;;245.37;92.47;;;;;;;;;;4975384;28;20802;-48
2023/09/29 03:57:17;;;;;;;250.07;96.23;;;;;;;;;;4994530;28;20442;-46
2023/09/29 03:59:44;;;;;;;246.77;93.93;;;;;;;;;;4979191;28;20958;-47
2023/09/29 04:02:10;;;;;;;245.50;92.80;;;;;;;;;;4990717;28;21261;-47
2023/09/29 04:04:36;;;;;;;246.97;94.43;;;;;;;;;;4987195;28;20415;-47
2023/09/29 04:07:04;;;;;;;253.27;103.80;;;;;;;;;;4975508;28;20407;-47
2023/09/29 04:09:30;;;;;;;248.83;94.17;;;;;;;;;;4975054;28;20418;-46
2023/09/29 04:11:56;;;;;;;251.30;98.33;;;;;;;;;;4993756;28;20434;-47
2023/09/29 04:14:22;;;;;;;246.73;94.40;;;;;;;;;;4979307;28;20420;-47
2023/09/29 04:16:48;;;;;;;246.23;92.67;;;;;;;;;;4985963;28;20417;-46
2023/09/29 04:19:14;;;;;;;248.57;92.87;;;;;;;;;;4986979;28;20470;-47
2023/09/29 04:21:40;;;;;;;250.13;96.83;;;;;;;;;;4977629;28;20906;-46
2023/09/29 04:24:06;;;;;;;249.43;95.83;;;;;;;;;;4994223;28;20558;-47
2023/09/29 04:26:32;;;;;;;245.57;91.07;;;;;;;;;;4975419;28;20410;-47
2023/09/29 04:28:58;;;;;;;248.77;96.47;;;;;;;;;;4989184;28;20804;-47
2023/09/29 04:31:24;;;;;;;247.37;93.93;;;;;;;;;;4983316;28;20424;-47
2023/09/29 04:33:50;;;;;;;248.30;95.03;;;;;;;;;;4981108;28;20429;-47
2023/09/29 04:36:16;;;;;;;247.43;94.13;;;;;;;;;;4991259;28;20460;-46
2023/09/29 04:38:42;;;;;;;246.93;96.37;;;;;;;;;;4974616;28;20509;-47
2023/09/29 04:41:08;;;;;;;250.27;95.80;;;;;;;;;;4992159;28;20414;-46
2023/09/29 04:43:34;;;;;;;246.80;92.83;;;;;;;;;;4979510;28;20435;-47
2023/09/29 04:46:00;;;;;;;247.07;90.77;;;;;;;;;;4984244;28;20417;-46
2023/09/29 04:48:26;;;;;;;247.30;90.67;;;;;;;;;;4993400;28;20451;-48
2023/09/29 04:50:52;;;;;;;254.87;100.50;;;;;;;;;;4992903;28;20696;-47
2023/09/29 04:53:18;;;;;;;246.10;90.13;;;;;;;;;;4993620;28;20876;-47
2023/09/29 04:55:44;;;;;;;246.83;90.03;;;;;;;;;;4975952;28;20426;-46
2023/09/29 04:58:11;;;;;;;246.23;89.83;;;;;;;;;;4987795;28;20518;-47
2023/09/29 05:00:37;;;;;;;250.10;96.30;;;;;;;;;;4983488;28;20566;-48
2023/09/29 05:03:03;;;;;;;244.33;88.20;;;;;;;;;;4979991;28;20626;-47
2023/09/29 05:05:29;;;;;;;248.33;92.43;;;;;;;;;;4991802;28;20410;-46
2023/09/29 05:07:56;;;;;;;245.57;88.47;;;;;;;;;;4974183;28;20414;-46
2023/09/29 05:10:22;;;;;;;245.47;90.67;;;;;;;;;;4990983;28;20446;-47
2023/09/29 05:12:48;;;;;;;246.53;90.90;;;;;;;;;;4980548;28;20434;-47
2023/09/29 05:15:14;;;;;;;247.27;91.57;;;;;;;;;;4983073;28;20924;-47
2023/09/29 05:17:40;;;;;;;246.27;92.47;;;;;;;;;;4988065;28;20795;-47
2023/09/29 05:20:06;;;;;;;248.37;93.00;;;;;;;;;;4974610;28;20458;-48
2023/09/29 05:22:32;;;;;;;247.33;92.17;;;;;;;;;;4992861;28;20423;-48
2023/09/29 05:25:01;;;;;;;247.70;92.60;;;;;;;;;;4976325;28;20418;-49
2023/09/29 05:27:32;;;;;;;247.77;93.17;;;;;;;;;;4986621;28;20419;-47
2023/09/29 05:29:58;;;;;;;246.10;90.57;;;;;;;;;;4983219;28;20473;-47
2023/09/29 05:32:24;;;;;;;243.90;89.83;;;;;;;;;;4979534;28;20461;-48
2023/09/29 05:34:50;;;;;;;245.33;91.57;;;;;;;;;;4991098;28;20414;-47
2023/09/29 05:37:17;;;;;;;244.50;90.63;;;;;;;;;;4973603;28;20495;-48
2023/09/29 05:39:43;;;;;;;245.03;89.57;;;;;;;;;;4990612;28;20514;-47
2023/09/29 05:42:09;;;;;;;248.17;90.90;;;;;;;;;;4979092;28;20917;-47
2023/09/29 05:44:35;;;;;;;244.77;89.13;;;;;;;;;;4982586;28;20462;-48
2023/09/29 05:47:02;;;;;;;244.53;88.57;;;;;;;;;;4987263;28;20955;-46
2023/09/29 05:49:28;;;;;;;249.23;95.07;;;;;;;;;;4986783;28;20441;-47
2023/09/29 05:51:54;;;;;;;248.50;92.77;;;;;;;;;;4992467;28;20433;-48
2023/09/29 05:54:20;;;;;;;255.63;101.27;;;;;;;;;;4976817;28;20941;-48
2023/09/29 05:56:46;;;;;;;246.40;90.67;;;;;;;;;;4992799;28;20407;-47
2023/09/29 05:59:12;;;;;;;248.60;95.27;;;;;;;;;;4992246;28;20490;-48
2023/09/29 06:01:38;;;;;;;248.93;94.20;;;;;;;;;;4991973;28;20420;-47
2023/09/29 06:04:04;;;;;;;251.43;102.43;;;;;;;;;;4990558;28;20422;-46
2023/09/29 06:06:30;;;;;;;250.63;97.63;;;;;;;;;;4991906;28;20410;-46
2023/09/29 06:08:57;;;;;;;252.70;98.20;;;;;;;;;;4991372;28;20914;-46
2023/09/29 06:11:23;;;;;;;248.33;93.50;;;;;;;;;;4991823;28;20448;-46
2023/09/29 06:13:49;;;;;;;254.53;101.47;;;;;;;;;;4991529;28;20937;-45
2023/09/29 06:16:15;;;;;;;253.93;100.67;;;;;;;;;;4994522;28;20403;-46
2023/09/29 06:18:41;;;;;;;253.07;98.27;;;;;;;;;;4996945;28;20407;-47
2023/09/29 06:21:07;;;;;;;249.80;96.30;;;;;;;;;;4997276;28;20497;-47
2023/09/29 06:23:33;;;;;;;255.13;101.53;;;;;;;;;;4997948;28;20521;-47
2023/09/29 06:26:00;;;;;;;248.40;95.53;;;;;;;;;;4997895;28;20410;-46
2023/09/29 06:28:26;;;;;;;246.70;91.87;;;;;;;;;;4998414;28;20904;-46
2023/09/29 06:30:55;;;;;;;251.47;98.40;;;;;;;;;;4998462;28;20418;-46
2023/09/29 06:33:21;;;;;;;249.97;94.43;;;;;;;;;;4998594;28;20431;-47
2023/09/29 06:35:47;;;;;;;248.53;95.23;;;;;;;;;;4998856;28;20407;-48
2023/09/29 06:38:13;;;;;;;254.87;101.50;;;;;;;;;;4998541;28;20416;-45
2023/09/29 06:40:39;;;;;;;253.83;98.07;;;;;;;;;;4998385;28;20841;-47
2023/09/29 06:43:05;;;;;;;247.70;92.60;;;;;;;;;;4998553;28;20423;-47
2023/09/29 06:45:33;;;;;;;250.70;98.53;;;;;;;;;;4998414;28;20430;-47
2023/09/29 06:47:59;;;;;;;248.43;94.13;;;;;;;;;;4998629;28;20423;-46
2023/09/29 06:50:26;;;;;;;249.53;97.20;;;;;;;;;;4998389;28;20430;-47
2023/09/29 06:52:52;;;;;;;252.53;100.43;;;;;;;;;;4998449;28;20497;-46
2023/09/29 06:55:18;;;;;;;249.00;95.63;;;;;;;;;;4996512;28;20442;-47
2023/09/29 06:57:44;;;;;;;249.57;97.47;;;;;;;;;;4998498;28;20446;-47
2023/09/29 07:00:10;;;;;;;249.90;98.20;;;;;;;;;;4998046;28;20459;-47
2023/09/29 07:02:36;;;;;;;251.67;98.80;;;;;;;;;;4998130;28;20794;-46
2023/09/29 07:05:02;;;;;;;250.23;97.90;;;;;;;;;;4998448;28;20496;-48
2023/09/29 07:07:28;;;;;;;251.87;98.33;;;;;;;;;;4998402;28;20447;-47
2023/09/29 07:09:54;;;;;;;248.67;94.43;;;;;;;;;;4998347;28;20411;-48
2023/09/29 07:12:21;;;;;;;251.70;98.87;;;;;;;;;;4998005;28;20433;-47
2023/09/29 07:14:47;;;;;;;253.03;103.27;;;;;;;;;;4998116;28;20408;-48
2023/09/29 07:17:13;;;;;;;248.67;95.33;;;;;;;;;;4998209;28;20411;-47
2023/09/29 07:19:39;;;;;;;248.83;95.27;;;;;;;;;;4998162;28;20471;-47
2023/09/29 07:22:05;;;;;;;247.20;93.63;;;;;;;;;;4997894;28;20523;-46
2023/09/29 07:24:31;;;;;;;251.53;99.27;;;;;;;;;;4995414;28;20419;-46
2023/09/29 07:26:57;;;;;;;254.67;101.37;;;;;;;;;;4994857;28;20408;-47
2023/09/29 07:29:23;;;;;;;256.83;102.13;;;;;;;;;;4993020;28;20412;-47
2023/09/29 07:31:49;;;;;;;252.67;98.97;;;;;;;;;;4993148;28;20496;-46
2023/09/29 07:34:15;;;;;;;253.77;100.87;;;;;;;;;;4994199;28;20436;-48
2023/09/29 07:36:45;;;;;;;252.43;99.50;;;;;;;;;;4993265;28;20423;-48
2023/09/29 07:39:15;;;;;;;249.40;96.13;;;;;;;;;;4994314;28;20812;-48
2023/09/29 07:41:41;;;;;;;253.60;100.27;;;;;;;;;;4994538;28;20417;-47
2023/09/29 07:44:08;;;;;;;251.97;100.77;;;;;;;;;;4994756;28;20822;-45
2023/09/29 07:46:35;;;;;;;252.17;99.13;;;;;;;;;;4986796;28;20410;-47
2023/09/29 07:49:01;;;;;;;250.10;97.00;;;;;;;;;;4994698;28;20798;-46
2023/09/29 07:51:27;;;;;;;255.17;106.57;;;;;;;;;;4994507;28;20412;-46
2023/09/29 07:53:53;;;;;;;253.90;101.17;;;;;;;;;;4994579;28;20940;-47
2023/09/29 07:56:19;;;;;;;250.97;98.20;;;;;;;;;;4994439;28;20420;-46
2023/09/29 07:58:45;;;;;;;249.40;97.07;;;;;;;;;;4994535;28;20904;-46
2023/09/29 08:01:11;;;;;;;254.97;106.47;;;;;;;;;;4994215;28;20411;-47
2023/09/29 08:03:37;;;;;;;249.63;98.07;;;;;;;;;;4994504;28;20944;-47
2023/09/29 08:06:03;;;;;;;254.33;107.37;;;;;;;;;;4994500;28;20420;-46
2023/09/29 08:08:29;;;;;;;252.33;102.80;;;;;;;;;;4994406;28;20754;-46
2023/09/29 08:10:55;;;;;;;258.00;107.63;;;;;;;;;;4993977;28;20416;-47
2023/09/29 08:13:23;;;;;;;253.57;104.23;;;;;;;;;;4994196;28;20432;-46
2023/09/29 08:15:49;;;;;;;253.83;105.03;;;;;;;;;;4994513;28;20419;-46
2023/09/29 08:18:17;;;;;;;254.03;104.47;;;;;;;;;;4994328;28;20424;-47
2023/09/29 08:20:43;;;;;;;257.77;106.00;;;;;;;;;;4993972;28;20470;-46
2023/09/29 08:23:09;;;;;;;252.57;101.70;;;;;;;;;;4994043;28;20435;-48
2023/09/29 08:25:35;;;;;;;253.70;102.07;;;;;;;;;;4975595;28;20971;-47
2023/09/29 08:28:04;;;;;;;254.17;106.63;;;;;;;;;;4994199;28;20782;-46
2023/09/29 08:30:30;;;;;;;256.10;106.97;;;;;;;;;;4994155;28;20423;-46
2023/09/29 08:32:56;;;;;;;254.67;106.90;;;;;;;;;;4993892;28;20453;-46
2023/09/29 08:35:22;;;;;;;257.57;115.63;;;;;;;;;;4994031;28;20430;-46
2023/09/29 08:37:49;;;;;;;255.10;109.97;;;;;;;;;;4993376;28;20477;-48
2023/09/29 08:40:19;;;;;;;258.63;115.00;;;;;;;;;;4992594;28;20462;-47
2023/09/29 08:42:51;;;;;;;251.63;106.80;;;;;;;;;;4975434;28;20439;-47
2023/09/29 08:45:17;;;;;;;253.50;108.83;;;;;;;;;;4988974;28;20428;-47
2023/09/29 08:47:47;;;;;;;259.63;113.60;;;;;;;;;;4982292;28;20448;-47
2023/09/29 08:50:14;;;;;;;254.23;110.13;;;;;;;;;;4990482;28;20903;-47
2023/09/29 08:52:44;;;;;;;256.03;113.07;;;;;;;;;;4992825;28;20431;-47
2023/09/29 08:55:14;;;;;;;259.07;114.87;;;;;;;;;;4993038;28;20817;-48
2023/09/29 08:57:45;;;;;;;256.67;114.93;;;;;;;;;;4974372;28;20940;-47
2023/09/29 09:00:14;;;;;;;256.23;117.23;;;;;;;;;;4990691;28;21002;-47
2023/09/29 09:02:44;;;;;;;256.60;118.57;;;;;;;;;;4979793;28;20779;-47
2023/09/29 09:05:10;;;;;;;257.10;122.07;;;;;;;;;;4983523;28;20504;-47
2023/09/29 09:07:37;;;;;;;256.73;127.23;;;;;;;;;;4987474;28;20413;-48
2023/09/29 09:10:03;;;;;;;256.70;125.53;;;;;;;;;;4975420;28;20405;-47
2023/09/29 09:12:33;;;;;;;261.30;128.93;;;;;;;;;;4991968;28;20800;-48
2023/09/29 09:14:59;;;;;;;257.37;122.70;;;;;;;;;;4974238;28;20417;-47
2023/09/29 09:17:25;;;;;;;259.07;124.83;;;;;;;;;;4987511;28;20503;-46
2023/09/29 09:19:51;;;;;;;259.63;124.73;;;;;;;;;;4983100;28;20988;-47
2023/09/29 09:22:27;;;;;;;259.53;119.60;;;;;;;;;;4973875;28;20436;-46
2023/09/29 09:25:00;;;;;;;257.03;117.03;;;;;;;;;;4976743;28;20798;-46
2023/09/29 09:27:26;;;;;;;255.03;113.83;;;;;;;;;;4992925;28;20408;-46
2023/09/29 09:29:53;;;;;;;257.80;116.13;;;;;;;;;;4973661;28;20420;-47
2023/09/29 09:32:28;;;;;;;253.33;110.40;;;;;;;;;;4988852;28;20444;-47
2023/09/29 09:34:54;;;;;;;256.73;116.73;;;;;;;;;;4979929;28;20416;-46
2023/09/29 09:37:27;;;;;;;258.67;118.17;;;;;;;;;;4982344;28;20903;-46
2023/09/29 09:39:59;;;;;;;255.70;112.70;;;;;;;;;;4986786;28;20475;-48
2023/09/29 09:42:25;;;;;;;254.23;109.47;;;;;;;;;;4984640;28;20453;-47
2023/09/29 09:44:57;;;;;;;252.93;112.03;;;;;;;;;;4992607;28;20829;-48
2023/09/29 09:47:25;;;;;;;253.80;111.63;;;;;;;;;;4992272;28;20419;-48
2023/09/29 09:49:55;;;;;;;255.00;112.63;;;;;;;;;;4991716;28;20412;-47
2023/09/29 09:52:25;;;;;;;257.93;119.73;;;;;;;;;;4980614;28;20520;-48
2023/09/29 09:54:58;;;;;;;259.83;117.43;;;;;;;;;;4981488;28;20568;-46
2023/09/29 09:57:34;;;;;;;259.80;125.67;;;;;;;;;;4987627;28;20436;-47
2023/09/29 10:00:09;;;;;;;254.13;118.77;;;;;;;;;;4989929;28;20463;-47
2023/09/29 10:02:39;;;;;;;254.03;119.63;;;;;;;;;;4976712;28;20857;-47
2023/09/29 10:05:12;;;;;;;258.23;123.20;;;;;;;;;;4991605;28;20431;-47
2023/09/29 10:07:45;;;;;;;256.23;120.43;;;;;;;;;;4984643;28;20494;-47
2023/09/29 10:10:11;;;;;;;256.07;123.33;;;;;;;;;;4978538;28;20475;-47
2023/09/29 10:12:38;;;;;;;257.90;125.37;;;;;;;;;;4991986;28;21062;-48
2023/09/29 10:15:14;;;;;;;257.43;124.07;;;;;;;;;;4991476;28;20432;-47
2023/09/29 10:17:40;;;;;;;256.60;119.07;;;;;;;;;;4987044;28;20454;-47
2023/09/29 10:20:19;;;;;;;263.43;125.80;;;;;;;;;;4984008;28;20463;-48
2023/09/29 10:22:46;;;;;;;264.93;124.37;;;;;;;;;;4985378;28;20554;-48
2023/09/29 10:25:19;;;;;;;257.23;121.27;;;;;;;;;;4989043;28;20434;-48
2023/09/29 10:27:49;;;;;;;262.57;122.23;;;;;;;;;;4990887;28;20412;-48
2023/09/29 10:30:16;;;;;;;260.33;118.30;;;;;;;;;;4988096;28;20874;-48
2023/09/29 10:32:43;;;;;;;253.67;113.70;;;;;;;;;;4985599;28;20452;-48
2023/09/29 10:35:18;;;;;;;258.00;116.17;;;;;;;;;;4989392;28;20431;-48
2023/09/29 10:37:45;;;;;;;256.33;118.47;;;;;;;;;;4990520;28;20960;-47
2023/09/29 10:40:32;;;;;;;255.87;113.97;;;;;;;;;;4991784;28;20533;-48
2023/09/29 10:43:04;;;;;;;258.03;117.97;;;;;;;;;;4986966;28;20953;-48
2023/09/29 10:45:37;;;;;;;254.33;107.47;;;;;;;;;;4991224;28;21232;-47
2023/09/29 10:48:05;;;;;;;252.07;105.30;;;;;;;;;;4989027;28;20419;-46
2023/09/29 10:50:38;;;;;;;256.23;110.97;;;;;;;;;;4991687;28;20423;-48
2023/09/29 10:53:04;;;;;;;254.37;110.03;;;;;;;;;;4990695;28;20447;-47
2023/09/29 10:55:30;;;;;;;254.87;113.20;;;;;;;;;;4991233;28;20413;-47
2023/09/29 10:57:59;;;;;;;252.10;107.97;;;;;;;;;;4990882;28;20920;-47
2023/09/29 11:00:25;;;;;;;252.63;107.97;;;;;;;;;;4991920;28;20808;-47
2023/09/29 11:02:52;;;;;;;254.00;108.70;;;;;;;;;;4994382;28;20432;-47
2023/09/29 11:05:20;;;;;;;255.50;111.53;;;;;;;;;;4988239;28;20428;-47
2023/09/29 11:07:50;;;;;;;252.23;106.43;;;;;;;;;;4990669;28;20410;-47
2023/09/29 11:10:20;;;;;;;251.03;104.63;;;;;;;;;;4986282;28;20446;-47
2023/09/29 11:12:49;;;;;;;255.40;113.47;;;;;;;;;;4987385;28;20455;-47
2023/09/29 11:15:17;;;;;;;255.97;112.03;;;;;;;;;;4993665;28;20434;-47
2023/09/29 11:17:46;;;;;;;253.33;109.00;;;;;;;;;;4994797;28;20809;-47
2023/09/29 11:20:19;;;;;;;253.87;110.07;;;;;;;;;;4984665;28;21003;-47
2023/09/29 11:22:46;;;;;;;256.57;115.20;;;;;;;;;;4975902;28;20474;-48
2023/09/29 11:25:21;;;;;;;257.37;118.57;;;;;;;;;;4976378;28;20917;-49
2023/09/29 11:27:53;;;;;;;265.53;127.33;;;;;;;;;;4976307;28;20893;-47
2023/09/29 11:30:24;;;;;;;258.07;125.37;;;;;;;;;;4982469;28;20439;-48
2023/09/29 11:32:52;;;;;;;260.47;126.03;;;;;;;;;;4989401;28;20510;-48
2023/09/29 11:35:18;;;;;;;257.17;124.77;;;;;;;;;;4993626;28;20442;-47
2023/09/29 11:37:46;;;;;;;260.00;133.60;;;;;;;;;;4994647;28;20450;-47
2023/09/29 11:40:12;;;;;;;258.43;129.37;;;;;;;;;;4992218;28;20459;-48
2023/09/29 11:42:38;;;;;;;258.50;129.33;;;;;;;;;;4994290;28;20483;-46
2023/09/29 11:45:08;;;;;;;255.03;126.73;;;;;;;;;;4994932;28;20799;-48
2023/09/29 11:47:34;;;;;;;257.50;128.53;;;;;;;;;;4994348;28;20447;-47
2023/09/29 11:50:00;;;;;;;260.83;131.03;;;;;;;;;;4994559;28;20830;-46
2023/09/29 11:52:26;;;;;;;260.10;129.63;;;;;;;;;;4984435;28;20468;-48
2023/09/29 11:54:52;;;;;;;257.77;127.83;;;;;;;;;;4981998;28;20408;-47
2023/09/29 11:57:18;;;;;;;258.70;127.23;;;;;;;;;;4994179;28;20420;-48
2023/09/29 11:59:44;;;;;;;258.20;127.13;;;;;;;;;;4994724;28;20459;-47
2023/09/29 12:02:10;;;;;;;257.17;132.73;;;;;;;;;;4976397;28;20433;-48
2023/09/29 12:04:36;;;;;;;256.93;129.90;;;;;;;;;;4975654;28;20901;-47
2023/09/29 12:07:04;;;;;;;259.60;135.43;;;;;;;;;;4984294;28;20416;-48
2023/09/29 12:09:30;;;;;;;259.27;133.63;;;;;;;;;;4990782;28;20511;-47
2023/09/29 12:12:00;;;;;;;259.27;135.53;;;;;;;;;;4993807;28;20590;-48
2023/09/29 12:14:26;;;;;;;262.70;142.57;;;;;;;;;;4993344;28;20419;-48
2023/09/29 12:16:53;;;;;;;263.13;144.97;;;;;;;;;;4989175;28;21006;-47
2023/09/29 12:19:22;;;;;;;260.53;146.13;;;;;;;;;;4993071;28;20986;-48
2023/09/29 12:21:48;;;;;;;257.70;142.70;;;;;;;;;;4993462;28;20435;-48
2023/09/29 12:24:14;;;;;;;259.60;145.13;;;;;;;;;;4993666;28;20935;-48
2023/09/29 12:26:46;;;;;;;258.93;140.83;;;;;;;;;;4991181;28;20420;-48
2023/09/29 12:29:12;;;;;;;259.60;136.87;;;;;;;;;;4974761;28;20743;-48
2023/09/29 12:31:38;;;;;;;257.67;136.40;;;;;;;;;;4990235;28;20451;-47
2023/09/29 12:34:04;;;;;;;258.57;137.23;;;;;;;;;;4993537;28;20408;-48
2023/09/29 12:36:31;;;;;;;256.47;131.13;;;;;;;;;;4994052;28;20415;-48
2023/09/29 12:38:58;;;;;;;260.53;142.17;;;;;;;;;;4986961;28;20846;-48
2023/09/29 12:41:25;;;;;;;256.27;131.90;;;;;;;;;;4985728;28;20428;-47
2023/09/29 12:43:51;;;;;;;258.17;138.23;;;;;;;;;;4993859;28;20448;-48
2023/09/29 12:46:17;;;;;;;256.93;134.10;;;;;;;;;;4975336;28;20976;-47
2023/09/29 12:48:43;;;;;;;255.37;129.40;;;;;;;;;;4991203;28;20440;-47
2023/09/29 12:51:16;;;;;;;257.90;134.43;;;;;;;;;;4993012;28;20412;-47
2023/09/29 12:53:42;;;;;;;260.70;135.03;;;;;;;;;;4986012;28;20531;-47
2023/09/29 12:56:09;;;;;;;259.40;131.30;;;;;;;;;;4974504;28;20500;-48
2023/09/29 12:58:35;;;;;;;256.17;127.87;;;;;;;;;;4974278;28;20409;-47
2023/09/29 13:01:02;;;;;;;254.90;123.30;;;;;;;;;;4974273;28;20491;-47
2023/09/29 13:03:28;;;;;;;259.47;127.57;;;;;;;;;;4989343;28;20428;-48
2023/09/29 13:06:00;;;;;;;262.03;130.53;;;;;;;;;;4983741;28;20409;-47
2023/09/29 13:08:26;;;;;;;260.37;124.47;;;;;;;;;;4979483;28;20409;-48
2023/09/29 13:10:52;;;;;;;261.40;127.27;;;;;;;;;;4992041;28;20438;-47
2023/09/29 13:13:18;;;;;;;256.97;118.60;;;;;;;;;;4976594;28;20836;-46
2023/09/29 13:15:44;;;;;;;257.10;116.77;;;;;;;;;;4973874;28;20407;-48
2023/09/29 13:18:10;;;;;;;258.00;116.90;;;;;;;;;;4989209;28;20932;-47
2023/09/29 13:20:38;;;;;;;254.43;110.90;;;;;;;;;;4981063;28;20471;-48
2023/09/29 13:23:04;;;;;;;253.87;112.33;;;;;;;;;;4974300;28;20434;-47
2023/09/29 13:25:30;;;;;;;252.37;112.67;;;;;;;;;;4972756;28;20991;-48
2023/09/29 13:27:57;;;;;;;250.63;108.77;;;;;;;;;;4974043;28;20408;-46
2023/09/29 13:30:24;;;;;;;251.13;109.77;;;;;;;;;;4991470;28;20438;-46
2023/09/29 13:32:49;;;;;;;254.27;110.87;;;;;;;;;;4991108;28;20454;-47
2023/09/29 13:35:16;;;;;;;256.87;118.63;;;;;;;;;;4988976;28;20418;-47
2023/09/29 13:37:42;;;;;;;256.00;112.93;;;;;;;;;;4985613;28;20426;-47
2023/09/29 13:40:08;;;;;;;252.10;111.03;;;;;;;;;;4973839;28;20493;-48
2023/09/29 13:42:35;;;;;;;254.30;113.53;;;;;;;;;;4973386;28;20777;-46
2023/09/29 13:45:01;;;;;;;253.57;115.67;;;;;;;;;;4992434;28;20524;-48
2023/09/29 13:47:28;;;;;;;253.70;112.90;;;;;;;;;;4977628;28;20509;-48
2023/09/29 13:49:55;;;;;;;265.83;121.47;;;;;;;;;;4975055;28;20441;-48
2023/09/29 13:52:21;;;;;;;254.33;117.13;;;;;;;;;;4992314;28;20588;-47
2023/09/29 13:54:53;;;;;;;256.03;116.77;;;;;;;;;;4989223;28;20428;-46
2023/09/29 13:57:19;;;;;;;254.27;114.43;;;;;;;;;;4973367;28;20470;-47